Time;durP1;ratioP1;P1;durP2;ratioP2;P2;SDS_P1;SDS_P2;PMS_P1;PMS_P2;Temp;Humidity;BMP_temperature;BMP_pressure;BME280_temperature;BME280_humidity;BME280_pressure;Samples;Min_cycle;Max_cycle;Signal;HPM_P1;HPM_P2
2022/07/14 00:00:38;;;;;;;;;;;;;;;29.20;33.13;94746.91;4923959;29;7178;-62
2022/07/14 00:03:04;;;;;;;;;;;;;;;29.19;33.17;94728.81;4909556;29;8357;-62
2022/07/14 00:05:39;;;;;;;;;;;;;;;29.16;32.89;94732.59;4910016;29;7210;-62
2022/07/14 00:08:05;;;;;;;;;;;;;;;29.14;33.05;94732.38;4911340;29;7232;-62
2022/07/14 00:10:34;;;;;;;;;;;;;;;29.16;32.68;94735.34;4914429;29;7056;-62
2022/07/14 00:13:00;;;;;;;;;;;;;;;29.16;32.76;94732.59;4911143;29;7011;-62
2022/07/14 00:15:31;;;;;;;;;;;;;;;29.16;33.04;94727.81;4921200;29;7308;-62
2022/07/14 00:17:59;;;;;;;;;;;;;;;29.14;32.58;94721.28;4922342;29;7339;-62
2022/07/14 00:20:28;;;;;;;;;;;;;;;29.15;32.88;94714.44;4923879;29;7201;-62
2022/07/14 00:22:58;;;;;;;;;;;;;;;29.15;32.94;94717.22;4918660;29;8736;-62
2022/07/14 00:25:27;;;;;;;;;;;;;;;29.15;33.29;94722.75;4925522;28;7302;-62
2022/07/14 00:27:56;;;;;;;;;;;;;;;29.14;33.04;94715.75;4902932;29;7226;-62
2022/07/14 00:30:23;;;;;;;;;;;;;;;29.13;32.92;94711.47;4934928;28;7232;-62
2022/07/14 00:32:49;;;;;;;;;;;;;;;29.11;33.48;94700.91;4999147;28;9135;-62
2022/07/14 00:35:15;;;;;;;;;;;;;;;29.10;32.76;94700.16;4999408;28;6979;-62
2022/07/14 00:38:11;;;;;;;;;;;;;;;29.08;33.30;94697.19;4999718;28;7608;-62
2022/07/14 00:40:37;;;;;;;;;;;;;;;29.08;33.41;94699.94;4917453;28;7267;-62
2022/07/14 00:43:04;;;;;;;;;;;;;;;29.08;33.45;94701.97;4913102;29;7774;-62
2022/07/14 00:45:48;;;;;;;;;;;;;;;29.06;32.72;94699.72;4930175;29;7079;-62
2022/07/14 00:48:25;;;;;;;;;;;;;;;29.05;32.99;94692.72;4914271;29;7060;-62
2022/07/14 00:51:04;;;;;;;;;;;;;;;29.06;33.43;94696.97;4927107;29;7312;-62
2022/07/14 00:54:10;;;;;;;;;;;;;;;29.05;33.00;94701.03;4921003;29;6974;-62
2022/07/14 00:56:39;;;;;;;;;;;;;;;29.05;33.28;94695.47;4917607;29;7015;-62
2022/07/14 00:59:13;;;;;;;;;;;;;;;29.03;32.96;94692.50;4920930;29;8894;-62
2022/07/14 01:01:43;;;;;;;;;;;;;;;29.03;32.85;94694.50;4911595;29;7406;-62
2022/07/14 01:04:20;;;;;;;;;;;;;;;29.03;33.01;94706.34;4938180;29;7226;-62
2022/07/14 01:07:01;;;;;;;;;;;;;;;29.03;32.86;94700.03;4931739;29;9652;-62
2022/07/14 01:09:29;;;;;;;;;;;;;;;29.01;33.18;94697.06;4914203;29;8818;-62
2022/07/14 01:11:55;;;;;;;;;;;;;;;29.01;32.80;94691.53;4926162;29;8469;-62
2022/07/14 01:14:30;;;;;;;;;;;;;;;29.01;33.42;94694.28;4912283;29;8831;-62
2022/07/14 01:16:57;;;;;;;;;;;;;;;28.97;33.23;94700.13;4953542;28;7070;-62
2022/07/14 01:19:24;;;;;;;;;;;;;;;28.98;33.20;94700.88;5018932;28;9139;-62
2022/07/14 01:21:54;;;;;;;;;;;;;;;28.95;33.06;94694.34;4996775;28;9144;-62
2022/07/14 01:24:25;;;;;;;;;;;;;;;28.95;32.96;94694.34;4993150;28;8777;-62
2022/07/14 01:26:54;;;;;;;;;;;;;;;28.96;32.83;94686.81;5000810;28;7600;-62
2022/07/14 01:29:26;;;;;;;;;;;;;;;28.97;32.75;94686.25;4994250;28;9091;-62
2022/07/14 01:31:53;;;;;;;;;;;;;;;28.97;33.14;94680.00;4989551;28;9771;-62
2022/07/14 01:34:19;;;;;;;;;;;;;;;28.97;33.28;94680.00;4991419;28;7171;-62
2022/07/14 01:36:49;;;;;;;;;;;;;;;28.95;33.07;94677.75;5009749;28;7527;-62
2022/07/14 01:39:18;;;;;;;;;;;;;;;28.93;33.15;94679.53;4994898;28;9086;-62
2022/07/14 01:41:49;;;;;;;;;;;;;;;28.93;33.09;94683.06;4996171;28;9193;-62
2022/07/14 01:44:23;;;;;;;;;;;;;;;28.95;33.00;94679.75;5013108;28;7112;-62
2022/07/14 01:46:53;;;;;;;;;;;;;;;28.94;33.52;94681.78;5011937;28;9669;-62
2022/07/14 01:49:40;;;;;;;;;;;;;;;28.94;33.13;94675.50;5000848;28;9810;-62
2022/07/14 01:52:15;;;;;;;;;;;;;;;28.93;32.98;94685.81;4991718;28;7358;-62
2022/07/14 01:55:00;;;;;;;;;;;;;;;28.93;33.20;94679.53;5013975;28;7545;-62
2022/07/14 01:57:27;;;;;;;;;;;;;;;28.93;33.45;94680.28;4993030;28;7009;-62
2022/07/14 01:59:58;;;;;;;;;;;;;;;28.92;32.86;94683.59;5000856;28;7903;-62
2022/07/14 02:02:29;;;;;;;;;;;;;;;28.91;33.51;94687.63;5013074;28;9366;-62
2022/07/14 02:05:09;;;;;;;;;;;;;;;28.89;33.67;94682.63;4997380;28;7253;-62
2022/07/14 02:07:39;;;;;;;;;;;;;;;28.87;33.49;94678.88;4995591;28;7059;-62
2022/07/14 02:12:55;;;;;;;;;;;;;;;28.87;33.78;94671.31;5006671;28;7373;-62
2022/07/14 02:15:21;;;;;;;;;;;;;;;28.83;33.58;94659.06;4997104;28;6979;-62
2022/07/14 02:17:56;;;;;;;;;;;;;;;28.84;33.54;94655.03;4990962;28;9324;-62
2022/07/14 02:20:26;;;;;;;;;;;;;;;28.85;33.88;94665.56;4995419;28;7370;-62
2022/07/14 02:22:52;;;;;;;;;;;;;;;28.85;33.48;94660.03;4983133;28;7115;-62
2022/07/14 02:25:23;;;;;;;;;;;;;;;28.84;33.69;94661.28;4971265;28;7283;-62
2022/07/14 02:27:50;;;;;;;;;;;;;;;28.85;33.75;94656.50;5010348;28;9206;-62
2022/07/14 02:30:16;;;;;;;;;;;;;;;28.83;33.33;94654.28;5008044;28;7721;-62
2022/07/14 02:32:42;;;;;;;;;;;;;;;28.83;33.40;94648.72;4997728;28;7251;-62
2022/07/14 02:35:08;;;;;;;;;;;;;;;28.81;33.81;94639.47;4994755;28;7240;-62
2022/07/14 02:37:49;;;;;;;;;;;;;;;28.80;33.97;94630.41;5010513;28;7210;-62
2022/07/14 02:40:34;;;;;;;;;;;;;;;28.79;34.15;94642.00;4996639;28;9045;-62
2022/07/14 02:43:01;;;;;;;;;;;;;;;28.77;33.84;94637.00;4977143;28;8750;-62
2022/07/14 02:46:03;;;;;;;;;;;;;;;28.79;33.64;94644.78;5002119;28;7084;-62
2022/07/14 02:48:31;;;;;;;;;;;;;;;28.78;33.80;94646.03;4953376;28;9239;-62
2022/07/14 02:51:01;;;;;;;;;;;;;;;28.80;33.66;94647.00;4951434;28;7187;-62
2022/07/14 02:53:34;;;;;;;;;;;;;;;28.80;33.80;94649.03;4960692;28;7122;-62
2022/07/14 02:56:05;;;;;;;;;;;;;;;28.79;33.83;94659.38;4965977;28;7087;-62
2022/07/14 02:58:32;;;;;;;;;;;;;;;28.79;33.80;94673.22;4966750;28;7266;-62
2022/07/14 03:00:58;;;;;;;;;;;;;;;28.77;33.82;94658.41;4965196;28;7272;-62
2022/07/14 03:03:27;;;;;;;;;;;;;;;28.77;33.27;94655.63;4958093;28;7577;-62
2022/07/14 03:06:09;;;;;;;;;;;;;;;28.73;34.00;94650.38;4965736;28;9454;-62
2022/07/14 03:08:36;;;;;;;;;;;;;;;28.77;33.44;94650.09;4965908;28;7177;-62
2022/07/14 03:11:22;;;;;;;;;;;;;;;28.76;33.84;94646.56;4946414;28;7289;-62
2022/07/14 03:13:48;;;;;;;;;;;;;;;28.74;33.62;94640.81;4950945;28;9049;-62
2022/07/14 03:16:16;;;;;;;;;;;;;;;28.73;33.66;94642.06;4969945;28;9288;-62
2022/07/14 03:18:43;;;;;;;;;;;;;;;28.73;33.97;94655.91;4949018;28;8225;-62
2022/07/14 03:21:11;;;;;;;;;;;;;;;28.72;33.73;94659.97;4967183;28;9413;-62
2022/07/14 03:23:41;;;;;;;;;;;;;;;28.71;34.07;94647.38;4983025;28;7234;-62
2022/07/14 03:26:15;;;;;;;;;;;;;;;28.73;33.66;94658.69;4999615;28;7005;-62
2022/07/14 03:28:44;;;;;;;;;;;;;;;28.74;33.70;94668.50;5012033;28;7244;-62
2022/07/14 03:31:12;;;;;;;;;;;;;;;28.74;33.76;94674.03;5009096;28;8478;-62
2022/07/14 03:33:38;;;;;;;;;;;;;;;28.72;33.29;94671.03;5010391;28;9066;-62
2022/07/14 03:36:07;;;;;;;;;;;;;;;28.72;33.26;94667.53;5012511;28;7213;-62
2022/07/14 03:38:33;;;;;;;;;;;;;;;28.72;33.49;94665.50;5013346;28;7399;-62
2022/07/14 03:41:03;;;;;;;;;;;;;;;28.71;33.89;94666.75;5007189;28;7193;-62
2022/07/14 03:43:40;;;;;;;;;;;;;;;28.71;33.97;94664.00;4995506;28;7037;-62
2022/07/14 03:46:08;;;;;;;;;;;;;;;28.69;34.03;94661.00;4994880;28;9049;-62
2022/07/14 03:48:36;;;;;;;;;;;;;;;28.69;33.56;94649.19;4981462;28;9106;-62
2022/07/14 03:51:06;;;;;;;;;;;;;;;28.68;33.87;94648.47;5006361;28;7477;-62
2022/07/14 03:53:33;;;;;;;;;;;;;;;28.67;34.10;94655.25;5003718;28;7151;-62
2022/07/14 03:56:04;;;;;;;;;;;;;;;28.66;34.16;94662.06;4990859;28;6988;-62
2022/07/14 03:58:43;;;;;;;;;;;;;;;28.65;34.16;94660.56;5011117;28;8196;-63
2022/07/14 04:01:09;;;;;;;;;;;;;;;28.64;34.03;94667.38;4987457;28;9056;-63
2022/07/14 04:03:42;;;;;;;;;;;;;;;28.63;34.05;94674.19;4976410;28;7213;-62
2022/07/14 04:06:23;;;;;;;;;;;;;;;28.65;34.05;94685.47;5015131;28;9205;-62
2022/07/14 04:08:51;;;;;;;;;;;;;;;28.64;34.46;94691.53;5006610;28;8749;-62
2022/07/14 04:12:14;;;;;;;;;;;;;;;28.64;34.23;94667.38;4992488;28;7369;-63
2022/07/14 04:15:05;;;;;;;;;;;;;;;28.64;34.35;94663.88;4945572;28;9352;-62
2022/07/14 04:17:46;;;;;;;;;;;;;;;28.62;34.32;94671.94;4957467;28;7510;-62
2022/07/14 04:20:12;;;;;;;;;;;;;;;28.62;34.21;94689.31;4938901;28;9041;-62
2022/07/14 04:22:38;;;;;;;;;;;;;;;28.63;34.04;94676.94;4922327;28;7163;-63
2022/07/14 04:25:05;;;;;;;;;;;;;;;28.61;34.25;94662.13;4944410;28;7088;-62
2022/07/14 04:27:32;;;;;;;;;;;;;;;28.60;34.30;94653.06;4927998;28;8492;-62
2022/07/14 04:29:58;;;;;;;;;;;;;;;28.59;33.90;94650.84;4951207;28;8949;-62
2022/07/14 04:32:24;;;;;;;;;;;;;;;28.56;34.46;94638.78;4953869;28;7294;-62
2022/07/14 04:34:50;;;;;;;;;;;;;;;28.59;34.28;94625.94;4950561;28;7044;-62
2022/07/14 04:37:26;;;;;;;;;;;;;;;28.56;34.38;94616.63;4935680;28;9855;-63
2022/07/14 04:40:07;;;;;;;;;;;;;;;28.55;34.33;94633.78;4942966;28;7165;-62
2022/07/14 04:42:33;;;;;;;;;;;;;;;28.55;34.51;94700.19;4946051;28;7225;-62
2022/07/14 04:45:08;;;;;;;;;;;;;;;28.54;34.65;94704.97;4950986;28;7288;-62
2022/07/14 04:47:36;;;;;;;;;;;;;;;28.55;34.75;94672.50;4952105;28;6995;-62
2022/07/14 04:53:04;;;;;;;;;;;;;;;28.53;34.99;94703.50;5003255;28;7040;-61
2022/07/14 04:55:41;;;;;;;;;;;;;;;28.52;35.21;94682.59;4990022;28;7709;-62
2022/07/14 04:58:32;;;;;;;;;;;;;;;28.53;35.35;94691.66;5006267;28;7086;-62
2022/07/14 05:01:00;;;;;;;;;;;;;;;28.53;35.15;94709.03;5003819;28;7194;-63
2022/07/14 05:03:29;;;;;;;;;;;;;;;28.53;35.28;94697.19;5019359;28;7062;-62
2022/07/14 05:06:21;;;;;;;;;;;;;;;28.52;35.15;94685.38;4985699;28;7570;-62
2022/07/14 05:08:49;;;;;;;;;;;;;;;28.50;35.41;94689.94;4957335;28;7385;-62
2022/07/14 05:11:16;;;;;;;;;;;;;;;28.50;35.45;94690.69;4956777;28;7276;-62
2022/07/14 05:13:42;;;;;;;;;;;;;;;28.51;35.32;94688.66;4939345;28;7207;-62
2022/07/14 05:16:08;;;;;;;;;;;;;;;28.51;35.22;94686.66;4946372;28;7268;-62
2022/07/14 05:18:34;;;;;;;;;;;;;;;28.51;35.47;94683.91;4937830;28;9082;-62
2022/07/14 05:21:00;;;;;;;;;;;;;;;28.50;35.29;94670.56;4930831;28;7209;-61
2022/07/14 05:23:27;;;;;;;;;;;;;;;28.47;35.86;94661.28;4939930;28;7277;-62
2022/07/14 05:25:54;;;;;;;;;;;;;;;28.44;35.64;94645.00;4953535;28;7100;-62
2022/07/14 05:28:20;;;;;;;;;;;;;;;28.45;39.12;94649.25;4938898;28;9409;-62
2022/07/14 05:30:46;;;;;;;;;;;;;;;28.47;37.60;94644.69;4936034;28;7317;-62
2022/07/14 05:33:12;;;;;;;;;;;;;;;28.46;37.02;94645.97;4939172;28;7094;-62
2022/07/14 05:35:38;;;;;;;;;;;;;;;28.46;37.28;94637.66;4955745;28;7576;-62
2022/07/14 05:38:16;;;;;;;;;;;;;;;28.47;35.56;94636.38;4931818;28;8759;-61
2022/07/14 05:40:43;;;;;;;;;;;;;;;28.46;35.95;94632.13;4943522;28;7062;-61
2022/07/14 05:43:11;;;;;;;;;;;;;;;28.46;36.25;94632.13;4946133;28;7079;-61
2022/07/14 05:45:38;;;;;;;;;;;;;;;28.46;35.93;94637.66;4961621;28;7259;-61
2022/07/14 05:48:06;;;;;;;;;;;;;;;28.45;35.79;94625.09;5003177;28;7066;-61
2022/07/14 05:50:41;;;;;;;;;;;;;;;28.44;35.86;94628.38;5010867;28;8377;-61
2022/07/14 05:53:11;;;;;;;;;;;;;;;28.43;35.96;94633.16;5009260;28;7242;-62
2022/07/14 05:55:42;;;;;;;;;;;;;;;28.43;35.82;94641.47;4993121;28;7062;-61
2022/07/14 05:58:10;;;;;;;;;;;;;;;28.40;36.08;94642.53;4983011;28;7127;-62
2022/07/14 06:01:07;;;;;;;;;;;;;;;28.45;36.25;94650.00;5014182;28;7066;-62
2022/07/14 06:03:34;;;;;;;;;;;;;;;28.47;36.40;94647.44;4913724;29;7140;-62
2022/07/14 06:06:05;;;;;;;;;;;;;;;28.50;36.80;94649.19;4915372;29;9181;-62
2022/07/14 06:08:44;;;;;;;;;;;;;;;28.50;36.50;94645.66;4899171;29;8520;-62
2022/07/14 06:11:10;;;;;;;;;;;;;;;28.49;36.57;94639.41;4899439;29;7260;-62
2022/07/14 06:13:46;;;;;;;;;;;;;;;28.52;36.63;94652.16;4914362;29;7185;-62
2022/07/14 06:16:27;;;;;;;;;;;;;;;28.56;36.17;94651.88;4900203;29;7372;-62
2022/07/14 06:19:08;;;;;;;;;;;;;;;28.58;36.91;94658.41;4902860;29;9139;-62
2022/07/14 06:21:34;;;;;;;;;;;;;;;28.59;36.75;94659.91;4908464;29;9054;-62
2022/07/14 06:24:01;;;;;;;;;;;;;;;28.62;37.24;94663.66;4914862;29;7263;-63
2022/07/14 06:26:28;;;;;;;;;;;;;;;28.62;37.09;94661.63;4893176;29;7284;-62
2022/07/14 06:28:54;;;;;;;;;;;;;;;28.64;37.21;94658.34;4911487;29;7069;-62
2022/07/14 06:31:20;;;;;;;;;;;;;;;28.64;37.00;94664.63;4912347;29;7055;-62
2022/07/14 06:33:45;;;;;;;;;;;;;;;28.66;37.20;94650.25;4888175;29;7234;-62
2022/07/14 06:36:15;;;;;;;;;;;;;;;28.67;37.22;94651.72;4909107;29;9065;-63
2022/07/14 06:38:41;;;;;;;;;;;;;;;28.65;37.00;94643.22;4909557;29;7389;-63
2022/07/14 06:41:09;;;;;;;;;;;;;;;28.67;37.40;94646.94;4994278;28;9129;-63
2022/07/14 06:43:37;;;;;;;;;;;;;;;28.66;37.19;94639.19;4989371;28;7762;-63
2022/07/14 06:46:07;;;;;;;;;;;;;;;28.66;37.86;94651.00;5008013;28;9487;-63
2022/07/14 06:48:35;;;;;;;;;;;;;;;28.66;36.31;94647.47;5007871;28;7401;-63
2022/07/14 06:51:13;;;;;;;;;;;;;;;28.69;36.87;94647.16;4981124;28;6991;-63
2022/07/14 06:54:12;;;;;;;;;;;;;;;28.70;36.96;94645.16;5006868;28;9534;-63
2022/07/14 06:56:39;;;;;;;;;;;;;;;28.68;36.92;94642.16;4950566;28;9085;-63
2022/07/14 06:59:08;;;;;;;;;;;;;;;28.68;36.93;94645.69;4940841;28;7224;-63
2022/07/14 07:01:37;;;;;;;;;;;;;;;28.70;36.79;94645.16;4930842;28;6997;-63
2022/07/14 07:04:04;;;;;;;;;;;;;;;28.72;36.49;94648.16;4939560;28;8818;-63
2022/07/14 07:06:47;;;;;;;;;;;;;;;28.72;37.06;94642.59;4948101;28;8707;-63
2022/07/14 07:09:15;;;;;;;;;;;;;;;28.74;37.02;94645.59;4945179;28;7469;-63
2022/07/14 07:11:45;;;;;;;;;;;;;;;28.74;37.06;94651.88;4946802;28;7226;-63
2022/07/14 07:14:12;;;;;;;;;;;;;;;28.73;36.99;94644.84;4946008;28;7870;-63
2022/07/14 07:16:44;;;;;;;;;;;;;;;28.74;37.13;94640.81;4946111;28;7053;-63
2022/07/14 07:19:11;;;;;;;;;;;;;;;28.76;37.00;94632.72;4942767;28;7217;-62
2022/07/14 07:21:37;;;;;;;;;;;;;;;28.76;37.27;94631.97;4945289;28;6995;-63
2022/07/14 07:24:03;;;;;;;;;;;;;;;28.77;37.33;94631.47;4927280;28;7597;-62
2022/07/14 07:26:33;;;;;;;;;;;;;;;28.78;37.92;94630.19;4922461;28;9057;-62
2022/07/14 07:28:59;;;;;;;;;;;;;;;28.80;37.35;94632.41;4943307;28;8890;-63
2022/07/14 07:31:31;;;;;;;;;;;;;;;28.83;37.46;94632.13;4952313;28;7565;-63
2022/07/14 07:33:58;;;;;;;;;;;;;;;28.83;37.11;94625.84;4992500;28;6986;-63
2022/07/14 07:36:24;;;;;;;;;;;;;;;28.85;36.72;94623.28;4988192;28;6870;-64
2022/07/14 07:38:51;;;;;;;;;;;;;;;28.87;36.93;94620.72;4999448;28;7249;-63
2022/07/14 07:41:16;;;;;;;;;;;;;;;28.88;36.76;94614.66;4992685;28;8990;-63
2022/07/14 07:43:53;;;;;;;;;;;;;;;28.92;34.70;94615.13;4992304;28;7414;-63
2022/07/14 07:46:26;;;;;;;;;;;;;;;28.93;35.52;94607.53;4993852;28;7250;-63
2022/07/14 07:49:02;;;;;;;;;;;;;;;28.93;36.04;94605.53;5010392;28;7068;-63
2022/07/14 07:51:32;;;;;;;;;;;;;;;28.95;34.96;94607.75;4986710;28;7007;-63
2022/07/14 07:54:07;;;;;;;;;;;;;;;28.96;34.89;94610.00;4991766;28;7856;-63
2022/07/14 07:56:47;;;;;;;;;;;;;;;28.98;34.77;94601.94;4998183;28;7171;-64
2022/07/14 07:59:15;;;;;;;;;;;;;;;28.98;33.92;94599.16;4991388;28;9152;-63
2022/07/14 08:01:59;;;;;;;;;;;;;;;28.99;33.62;94602.69;4994364;28;7257;-63
2022/07/14 08:04:25;;;;;;;;;;;;;;;28.97;33.89;94605.97;5012359;28;7001;-64
2022/07/14 08:07:01;;;;;;;;;;;;;;;28.95;34.53;94602.22;5010715;28;9102;-64
2022/07/14 08:09:31;;;;;;;;;;;;;;;28.91;34.86;94610.84;4996068;28;8774;-63
2022/07/14 08:12:06;;;;;;;;;;;;;;;28.87;35.69;94607.63;5010719;28;7430;-63
2022/07/14 08:14:49;;;;;;;;;;;;;;;28.85;36.02;94601.13;5007214;28;7204;-62
2022/07/14 08:17:41;;;;;;;;;;;;;;;28.83;36.27;94600.91;5001204;28;7079;-63
2022/07/14 08:20:09;;;;;;;;;;;;;;;28.83;36.25;94604.44;4990482;28;7912;-62
2022/07/14 08:22:37;;;;;;;;;;;;;;;28.82;36.04;94602.19;4984865;28;9040;-63
2022/07/14 08:25:06;;;;;;;;;;;;;;;28.81;36.07;94589.63;5014134;28;8041;-62
2022/07/14 08:27:48;;;;;;;;;;;;;;;28.81;36.23;94603.47;5009442;28;7227;-63
2022/07/14 08:30:15;;;;;;;;;;;;;;;28.80;36.49;94599.94;4994455;28;7165;-62
2022/07/14 08:32:46;;;;;;;;;;;;;;;28.80;36.11;94597.19;4992663;28;7814;-63
2022/07/14 08:35:14;;;;;;;;;;;;;;;28.82;36.65;94600.16;5001108;28;9229;-61
2022/07/14 08:38:08;;;;;;;;;;;;;;;28.81;36.34;94595.16;4995695;28;7317;-62
2022/07/14 08:40:54;;;;;;;;;;;;;;;28.82;36.37;94591.09;4942303;28;9276;-62
2022/07/14 08:43:26;;;;;;;;;;;;;;;28.82;37.16;94588.34;4941606;28;9179;-62
2022/07/14 08:45:52;;;;;;;;;;;;;;;28.82;36.82;94582.78;4934139;28;7046;-61
2022/07/14 08:48:19;;;;;;;;;;;;;;;28.83;36.56;94587.06;4930949;28;7576;-62
2022/07/14 08:50:47;;;;;;;;;;;;;;;28.82;36.73;94580.78;4924907;28;7147;-62
2022/07/14 08:53:26;;;;;;;;;;;;;;;28.82;36.59;94571.72;4949098;28;7185;-61
2022/07/14 08:56:02;;;;;;;;;;;;;;;28.83;36.85;94573.22;4940719;28;7096;-61
2022/07/14 08:58:33;;;;;;;;;;;;;;;28.83;36.50;94581.53;4929476;29;7123;-61
2022/07/14 09:01:00;;;;;;;;;;;;;;;28.84;36.84;94583.03;4932281;28;8764;-62
2022/07/14 09:03:57;;;;;;;;;;;;;;;28.84;37.08;94583.75;4929859;28;7328;-62
2022/07/14 09:06:53;;;;;;;;;;;;;;;28.84;37.07;94583.75;4853840;29;8842;-62
2022/07/14 09:09:24;;;;;;;;;;;;;;;28.85;36.89;94590.06;4834862;29;7285;-62
2022/07/14 09:12:07;;;;;;;;;;;;;;;28.84;36.95;94583.75;4837971;29;9105;-62
2022/07/14 09:18:19;;;;;;;;;;;;;;;28.86;36.69;94586.03;4887001;29;7329;-62
2022/07/14 09:20:49;;;;;;;;;;;;;;;28.86;36.64;94586.75;4816332;29;8701;-62
2022/07/14 09:23:37;;;;;;;;;;;;;;;28.85;36.84;94585.28;4816486;29;6968;-62
2022/07/14 09:26:22;;;;;;;;;;;;;;;28.88;36.94;94589.75;4810979;29;6862;-62
2022/07/14 09:28:57;;;;;;;;;;;;;;;28.88;37.07;94586.97;4816368;29;9108;-62
2022/07/14 09:31:25;;;;;;;;;;;;;;;28.92;36.67;94594.97;4816397;29;7242;-62
2022/07/14 09:34:05;;;;;;;;;;;;;;;28.90;36.62;94589.97;4809623;29;9370;-62
2022/07/14 09:36:33;;;;;;;;;;;;;;;28.92;36.98;94587.44;4815728;29;7169;-62
2022/07/14 09:39:03;;;;;;;;;;;;;;;28.94;36.76;94587.66;4818678;29;8237;-62
2022/07/14 09:41:49;;;;;;;;;;;;;;;28.93;36.87;94583.38;4814445;29;7312;-63
2022/07/14 09:44:17;;;;;;;;;;;;;;;28.95;36.87;94582.84;4872267;29;9086;-62
2022/07/14 09:46:57;;;;;;;;;;;;;;;28.95;37.15;94575.28;4889849;29;9488;-62
2022/07/14 09:49:29;;;;;;;;;;;;;;;28.96;36.82;94574.00;4872948;29;7063;-63
2022/07/14 09:52:02;;;;;;;;;;;;;;;28.97;37.00;94580.31;4966802;28;6970;-62
2022/07/14 09:54:37;;;;;;;;;;;;;;;28.98;36.85;94574.22;4999961;28;9071;-62
2022/07/14 09:57:13;;;;;;;;;;;;;;;28.99;37.06;94572.94;4990510;28;7220;-62
2022/07/14 09:59:50;;;;;;;;;;;;;;;28.96;36.51;94574.00;4988145;28;7226;-63
2022/07/14 10:02:21;;;;;;;;;;;;;;;28.97;37.01;94572.00;5001541;28;7717;-61
2022/07/14 10:04:50;;;;;;;;;;;;;;;28.98;37.16;94565.94;4987697;28;7275;-62
2022/07/14 10:07:18;;;;;;;;;;;;;;;28.98;37.11;94568.69;4985717;28;6969;-61
2022/07/14 10:10:03;;;;;;;;;;;;;;;28.99;37.18;94564.63;4996874;28;7227;-61
2022/07/14 10:12:30;;;;;;;;;;;;;;;29.00;37.58;94568.91;4995250;28;9099;-61
2022/07/14 10:15:02;;;;;;;;;;;;;;;29.00;37.44;94563.38;5003385;28;7260;-62
2022/07/14 10:17:31;;;;;;;;;;;;;;;29.02;37.47;94568.38;4977965;28;7037;-61
2022/07/14 10:19:59;;;;;;;;;;;;;;;29.02;37.19;94563.59;5003475;28;9077;-61
2022/07/14 10:22:28;;;;;;;;;;;;;;;29.00;37.52;94557.84;5000059;28;8915;-61
2022/07/14 10:24:57;;;;;;;;;;;;;;;29.02;37.40;94555.28;4999676;28;7263;-61
2022/07/14 10:27:27;;;;;;;;;;;;;;;29.05;37.60;94554.22;4997679;28;10086;-61
2022/07/14 10:29:56;;;;;;;;;;;;;;;29.10;37.56;94558.91;4979535;28;7247;-62
2022/07/14 10:32:57;;;;;;;;;;;;;;;29.13;37.54;94553.59;5004192;28;9155;-61
2022/07/14 10:35:48;;;;;;;;;;;;;;;29.11;37.83;94551.34;5001993;28;7240;-62
2022/07/14 10:38:45;;;;;;;;;;;;;;;29.10;38.33;94553.38;5001944;28;7107;-61
2022/07/14 10:41:24;;;;;;;;;;;;;;;29.13;38.09;94561.88;4994150;28;7205;-62
2022/07/14 10:44:20;;;;;;;;;;;;;;;29.10;38.49;94552.63;4985297;28;9354;-61
2022/07/14 10:46:52;;;;;;;;;;;;;;;29.09;38.32;94546.34;4991679;28;7269;-61
2022/07/14 10:49:18;;;;;;;;;;;;;;;29.08;38.55;94550.38;4994117;28;8843;-61
2022/07/14 10:51:46;;;;;;;;;;;;;;;29.07;38.25;94548.91;4993693;28;6935;-61
2022/07/14 10:54:26;;;;;;;;;;;;;;;29.08;38.37;94542.06;4990067;28;7411;-62
2022/07/14 10:57:40;;;;;;;;;;;;;;;29.09;38.31;94546.34;4995568;28;7008;-62
2022/07/14 11:00:44;;;;;;;;;;;;;;;29.08;38.92;94539.31;4928620;28;7005;-63
2022/07/14 11:03:33;;;;;;;;;;;;;;;29.12;38.54;94541.78;4953603;28;7554;-61
2022/07/14 11:06:07;;;;;;;;;;;;;;;29.14;39.05;94544.00;4943252;28;8810;-61
2022/07/14 11:08:40;;;;;;;;;;;;;;;29.14;38.71;94535.69;4952302;28;7275;-61
2022/07/14 11:11:28;;;;;;;;;;;;;;;29.15;38.29;94535.16;4930663;28;7274;-61
2022/07/14 11:14:10;;;;;;;;;;;;;;;29.15;39.03;94524.06;4945308;28;7323;-61
2022/07/14 11:16:59;;;;;;;;;;;;;;;29.16;38.65;94533.91;4952180;28;6979;-60
2022/07/14 11:19:52;;;;;;;;;;;;;;;29.15;38.28;94526.84;4945753;28;7505;-61
2022/07/14 11:22:20;;;;;;;;;;;;;;;29.15;38.83;94524.06;4947038;28;7277;-60
2022/07/14 11:24:50;;;;;;;;;;;;;;;29.15;37.90;94518.53;4944026;28;7206;-61
2022/07/14 11:27:36;;;;;;;;;;;;;;;29.18;38.27;94516.75;4947076;28;7265;-62
2022/07/14 11:30:28;;;;;;;;;;;;;;;29.19;38.01;94516.22;4932017;28;9044;-62
2022/07/14 11:33:07;;;;;;;;;;;;;;;29.19;37.96;94521.75;4933318;28;7229;-62
2022/07/14 11:38:37;;;;;;;;;;;;;;;29.18;37.96;94516.75;5011471;28;7020;-62
2022/07/14 11:41:09;;;;;;;;;;;;;;;29.18;37.81;94514.75;4996226;28;7347;-62
2022/07/14 11:43:54;;;;;;;;;;;;;;;29.19;38.60;94512.72;5015613;28;7188;-62
2022/07/14 11:46:31;;;;;;;;;;;;;;;29.20;38.26;94514.22;4990417;28;7272;-62
2022/07/14 11:49:06;;;;;;;;;;;;;;;29.19;38.09;94507.19;5000075;28;7240;-62
2022/07/14 11:51:36;;;;;;;;;;;;;;;29.17;38.15;94499.38;4980642;28;7178;-62
2022/07/14 11:54:05;;;;;;;;;;;;;;;29.17;37.59;94499.38;4994014;28;7280;-62
2022/07/14 11:56:38;;;;;;;;;;;;;;;29.16;37.75;94502.66;5011283;28;7320;-62
2022/07/14 11:59:09;;;;;;;;;;;;;;;29.19;37.84;94499.59;4990400;28;7353;-62
2022/07/14 12:01:45;;;;;;;;;;;;;;;29.22;37.93;94500.56;5008865;28;7223;-62
2022/07/14 12:04:22;;;;;;;;;;;;;;;29.21;38.03;94499.81;4999589;28;7403;-62
2022/07/14 12:06:59;;;;;;;;;;;;;;;29.23;38.07;94491.00;5003923;28;9037;-61
2022/07/14 12:09:30;;;;;;;;;;;;;;;29.23;37.74;94491.72;5006099;28;9079;-62
2022/07/14 12:12:02;;;;;;;;;;;;;;;29.24;38.47;94476.59;5000768;28;6935;-62
2022/07/14 12:14:28;;;;;;;;;;;;;;;29.24;38.48;94473.81;4993553;28;7372;-62
2022/07/14 12:17:07;;;;;;;;;;;;;;;29.25;37.90;94474.56;5011131;28;7072;-62
2022/07/14 12:19:34;;;;;;;;;;;;;;;29.29;38.07;94466.69;5012000;28;7743;-62
2022/07/14 12:22:13;;;;;;;;;;;;;;;29.29;37.73;94472.22;4991551;28;7007;-62
2022/07/14 12:24:39;;;;;;;;;;;;;;;29.31;38.32;94470.41;4992518;28;7242;-62
2022/07/14 12:27:13;;;;;;;;;;;;;;;29.32;37.90;94471.16;4993419;28;7806;-62
2022/07/14 12:29:51;;;;;;;;;;;;;;;29.34;38.35;94471.38;4983898;28;7108;-62
2022/07/14 12:32:17;;;;;;;;;;;;;;;29.34;38.04;94461.03;4987362;28;8066;-62
2022/07/14 12:34:44;;;;;;;;;;;;;;;29.35;37.87;94451.44;5011233;28;7045;-62
2022/07/14 12:37:15;;;;;;;;;;;;;;;29.34;37.93;94441.63;5012931;28;9106;-63
2022/07/14 12:39:41;;;;;;;;;;;;;;;29.35;37.77;94451.44;5008199;28;9056;-63
2022/07/14 12:42:08;;;;;;;;;;;;;;;29.36;37.48;94436.28;5003095;28;8568;-63
2022/07/14 12:45:02;;;;;;;;;;;;;;;29.37;37.26;94435.03;4996094;28;8205;-60
2022/07/14 12:48:11;;;;;;;;;;;;;;;29.38;37.58;94435.78;4999876;28;7217;-60
2022/07/14 12:50:46;;;;;;;;;;;;;;;29.38;37.61;94435.78;4998245;28;7219;-60
2022/07/14 12:53:20;;;;;;;;;;;;;;;29.38;37.60;94436.53;5000233;28;9082;-60
2022/07/14 12:55:46;;;;;;;;;;;;;;;29.37;37.57;94423.19;5003465;28;7487;-62
2022/07/14 12:58:15;;;;;;;;;;;;;;;29.40;37.92;94422.13;4988977;28;7230;-61
2022/07/14 13:00:51;;;;;;;;;;;;;;;29.39;38.00;94415.84;5020188;28;7231;-61
2022/07/14 13:03:26;;;;;;;;;;;;;;;29.41;38.12;94426.38;5018194;28;7394;-61
2022/07/14 13:06:32;;;;;;;;;;;;;;;29.40;38.05;94422.13;4982761;28;7139;-61
2022/07/14 13:08:59;;;;;;;;;;;;;;;29.39;37.95;94415.09;4990694;28;9385;-62
2022/07/14 13:11:29;;;;;;;;;;;;;;;29.38;37.80;94424.69;5013128;28;7071;-61
2022/07/14 13:14:24;;;;;;;;;;;;;;;29.44;37.77;94419.78;5002827;28;7346;-61
2022/07/14 13:17:03;;;;;;;;;;;;;;;29.46;38.48;94415.19;4953524;28;7234;-61
2022/07/14 13:19:31;;;;;;;;;;;;;;;29.45;38.24;94419.22;4956029;28;7765;-61
2022/07/14 13:21:59;;;;;;;;;;;;;;;29.45;37.85;94408.16;4936267;28;7230;-61
2022/07/14 13:24:31;;;;;;;;;;;;;;;29.48;37.86;94414.66;4945385;28;6992;-61
2022/07/14 13:27:17;;;;;;;;;;;;;;;29.50;37.87;94403.78;4936765;28;7314;-61
2022/07/14 13:29:47;;;;;;;;;;;;;;;29.52;37.40;94401.22;4919784;29;9099;-60
2022/07/14 13:32:14;;;;;;;;;;;;;;;29.53;38.22;94399.94;4948917;28;9449;-61
2022/07/14 13:34:41;;;;;;;;;;;;;;;29.53;37.82;94394.41;4954010;28;7400;-61
2022/07/14 13:37:15;;;;;;;;;;;;;;;29.53;37.72;94392.38;4951992;28;7145;-61
2022/07/14 13:39:43;;;;;;;;;;;;;;;29.54;37.05;94393.84;4946258;28;7434;-61
2022/07/14 13:42:09;;;;;;;;;;;;;;;29.53;37.90;94397.16;4933249;28;7055;-61